createdAt,value
2023-12-11T00:00:45.446Z,0.00
2023-12-11T00:01:45.484Z,0.00
2023-12-11T00:02:47.832Z,0.00
2023-12-11T00:03:45.355Z,0.00
2023-12-11T00:04:45.335Z,0.00
2023-12-11T00:05:45.341Z,0.00
2023-12-11T00:06:45.324Z,0.00
2023-12-11T00:07:45.301Z,0.00
2023-12-11T00:08:45.297Z,0.00
2023-12-11T00:09:45.309Z,0.00
2023-12-11T00:10:45.275Z,0.00
2023-12-11T00:11:45.284Z,0.00
2023-12-11T00:12:45.265Z,0.00
2023-12-11T00:13:45.238Z,0.00
2023-12-11T00:14:45.232Z,0.00
2023-12-11T00:15:45.238Z,0.00
2023-12-11T00:16:45.246Z,0.00
2023-12-11T00:17:45.281Z,0.00
2023-12-11T00:18:45.382Z,0.00
2023-12-11T00:19:45.207Z,0.00
2023-12-11T00:20:45.173Z,0.00
2023-12-11T00:21:45.172Z,0.00
2023-12-11T00:22:45.172Z,0.00
2023-12-11T00:23:45.136Z,0.00
2023-12-11T00:24:45.162Z,0.00
2023-12-11T00:25:45.113Z,0.00
2023-12-11T00:26:45.135Z,0.00
2023-12-11T00:27:45.136Z,0.00
2023-12-11T00:28:45.090Z,0.00
2023-12-11T00:29:45.085Z,0.00
2023-12-11T00:30:45.091Z,0.00
2023-12-11T00:31:45.067Z,0.00
2023-12-11T00:32:45.106Z,0.00
2023-12-11T00:33:45.143Z,0.00
2023-12-11T00:34:45.137Z,0.00
2023-12-11T00:35:45.013Z,0.00
2023-12-11T00:36:45.051Z,0.00
2023-12-11T00:37:44.995Z,0.00
2023-12-11T00:38:44.991Z,0.00
2023-12-11T00:39:45.042Z,0.00
2023-12-11T00:40:44.963Z,0.00
2023-12-11T00:41:44.991Z,0.00
2023-12-11T00:42:44.982Z,0.00
2023-12-11T00:43:46.599Z,0.00
2023-12-11T00:44:44.929Z,0.00
2023-12-11T00:45:44.927Z,0.00
2023-12-11T00:46:44.942Z,0.00
2023-12-11T00:47:45.010Z,0.00
2023-12-11T00:48:45.060Z,0.00
2023-12-11T00:49:44.958Z,0.00
2023-12-11T00:50:44.883Z,0.00
2023-12-11T00:51:44.922Z,0.00
2023-12-11T00:52:44.884Z,0.00
2023-12-11T00:53:44.850Z,0.00
2023-12-11T00:54:44.872Z,0.00
2023-12-11T00:55:44.811Z,0.00
2023-12-11T00:56:44.816Z,0.00
2023-12-11T00:57:44.801Z,0.00
2023-12-11T00:58:44.815Z,0.00
2023-12-11T00:59:44.826Z,0.00
2023-12-11T01:00:44.796Z,0.00
2023-12-11T01:01:44.832Z,0.00
2023-12-11T01:02:44.746Z,0.00
2023-12-11T01:03:44.919Z,0.00
2023-12-11T01:04:44.795Z,0.00
2023-12-11T01:05:44.737Z,0.00
2023-12-11T01:06:44.776Z,0.00
2023-12-11T01:07:44.682Z,0.00
2023-12-11T01:08:44.694Z,0.00
2023-12-11T01:09:44.683Z,0.00
2023-12-11T01:10:44.667Z,0.00
2023-12-11T01:11:44.660Z,0.00
2023-12-11T01:12:44.683Z,0.00
2023-12-11T01:13:44.623Z,0.00
2023-12-11T01:14:44.624Z,0.00
2023-12-11T01:15:44.615Z,0.00
2023-12-11T01:16:44.617Z,0.00
2023-12-11T01:17:44.624Z,0.00
2023-12-11T01:18:44.651Z,0.00
2023-12-11T01:19:44.872Z,0.00
2023-12-11T01:20:44.559Z,0.00
2023-12-11T01:21:44.595Z,0.00
2023-12-11T01:22:44.554Z,0.00
2023-12-11T01:23:44.533Z,0.00
2023-12-11T01:24:44.545Z,0.00
2023-12-11T01:25:44.524Z,0.00
2023-12-11T01:26:44.504Z,0.00
2023-12-11T01:27:44.497Z,0.00
2023-12-11T01:28:44.496Z,0.00
2023-12-11T01:29:44.494Z,0.00
2023-12-11T01:30:44.468Z,0.00
2023-12-11T01:31:44.458Z,0.00
2023-12-11T01:32:44.461Z,0.00
2023-12-11T01:33:44.470Z,0.00
2023-12-11T01:34:44.489Z,0.00
2023-12-11T01:35:44.405Z,0.00
2023-12-11T01:36:44.454Z,0.00
2023-12-11T01:37:44.379Z,0.00
2023-12-11T01:38:44.364Z,0.00
2023-12-11T01:39:44.395Z,0.00
2023-12-11T01:40:44.353Z,0.00
2023-12-11T01:41:44.354Z,0.00
2023-12-11T01:42:44.363Z,0.00
2023-12-11T01:43:44.369Z,0.00
2023-12-11T01:44:44.381Z,0.00
2023-12-11T01:45:44.332Z,0.00
2023-12-11T01:46:44.321Z,0.00
2023-12-11T01:47:44.336Z,0.00
2023-12-11T01:48:44.435Z,0.00
2023-12-11T01:49:44.286Z,0.00
2023-12-11T01:50:44.262Z,0.00
2023-12-11T01:51:44.282Z,0.00
2023-12-11T01:52:44.234Z,0.00
2023-12-11T01:53:44.216Z,0.00
2023-12-11T01:54:44.216Z,0.00
2023-12-11T01:55:44.196Z,0.00
2023-12-11T01:56:44.241Z,0.00
2023-12-11T01:57:44.199Z,0.00
2023-12-11T01:58:44.175Z,0.00
2023-12-11T01:59:46.782Z,0.00
2023-12-11T02:00:44.211Z,0.00
2023-12-11T02:01:44.229Z,0.00
2023-12-11T02:02:44.130Z,0.00
2023-12-11T02:03:44.167Z,0.00
2023-12-11T02:04:44.221Z,0.00
2023-12-11T02:05:44.182Z,0.00
2023-12-11T02:06:44.150Z,0.00
2023-12-11T02:07:44.068Z,0.00
2023-12-11T02:08:44.066Z,0.00
2023-12-11T02:09:44.072Z,0.00
2023-12-11T02:10:44.064Z,0.00
2023-12-11T02:11:46.531Z,0.00
2023-12-11T02:12:44.114Z,0.00
2023-12-11T02:13:44.015Z,0.00
2023-12-11T02:14:44.004Z,0.00
2023-12-11T02:15:44.102Z,0.00
2023-12-11T02:16:44.051Z,0.00
2023-12-11T02:17:44.013Z,0.00
2023-12-11T02:18:44.048Z,0.00
2023-12-11T02:19:44.068Z,0.00
2023-12-11T02:20:43.945Z,0.00
2023-12-11T02:21:43.944Z,0.00
2023-12-11T02:22:43.949Z,0.00
2023-12-11T02:23:43.909Z,0.00
2023-12-11T02:24:43.936Z,0.00
2023-12-11T02:25:43.888Z,0.00
2023-12-11T02:26:43.900Z,0.00
2023-12-11T02:27:43.868Z,0.00
2023-12-11T02:28:43.864Z,0.00
2023-12-11T02:29:43.853Z,0.00
2023-12-11T02:30:43.894Z,0.00
2023-12-11T02:31:43.843Z,0.00
2023-12-11T02:32:43.851Z,0.00
2023-12-11T02:33:43.902Z,0.00
2023-12-11T02:34:43.950Z,0.00
2023-12-11T02:35:43.788Z,0.00
2023-12-11T02:36:43.811Z,0.00
2023-12-11T02:37:44.221Z,0.00
2023-12-11T02:38:43.783Z,0.00
2023-12-11T02:39:43.753Z,0.00
2023-12-11T02:40:43.736Z,0.00
2023-12-11T02:41:43.722Z,0.00
2023-12-11T02:42:43.776Z,0.00
2023-12-11T02:43:43.703Z,0.00
2023-12-11T02:44:43.697Z,0.00
2023-12-11T02:45:43.738Z,0.00
2023-12-11T02:46:43.697Z,0.00
2023-12-11T02:47:43.747Z,0.00
2023-12-11T02:48:43.830Z,0.00
2023-12-11T02:49:43.648Z,0.00
2023-12-11T02:50:43.732Z,0.00
2023-12-11T02:51:43.650Z,0.00
2023-12-11T02:52:43.625Z,0.00
2023-12-11T02:53:43.602Z,0.00
2023-12-11T02:54:43.623Z,0.00
2023-12-11T02:55:43.586Z,0.00
2023-12-11T02:56:43.612Z,0.00
2023-12-11T02:57:43.613Z,0.00
2023-12-11T02:58:43.555Z,0.00
2023-12-11T02:59:43.539Z,0.00
2023-12-11T03:00:43.698Z,0.00
2023-12-11T03:01:43.557Z,0.00
2023-12-11T03:02:43.544Z,0.00
2023-12-11T03:03:43.551Z,0.00
2023-12-11T03:04:43.614Z,0.00
2023-12-11T03:05:43.581Z,0.00
2023-12-11T03:06:43.529Z,0.00
2023-12-11T03:07:43.471Z,0.00
2023-12-11T03:08:43.481Z,0.00
2023-12-11T03:09:43.472Z,0.00
2023-12-11T03:10:43.557Z,0.00
2023-12-11T03:11:43.414Z,0.00
2023-12-11T03:12:43.419Z,0.00
2023-12-11T03:13:43.430Z,0.00
2023-12-11T03:14:43.405Z,0.00
2023-12-11T03:15:43.456Z,0.00
2023-12-11T03:16:43.368Z,0.00
2023-12-11T03:17:43.399Z,0.00
2023-12-11T03:18:43.535Z,0.00
2023-12-11T03:19:43.419Z,0.00
2023-12-11T03:20:43.346Z,0.00
2023-12-11T03:21:43.364Z,0.00
2023-12-11T03:22:43.326Z,0.00
2023-12-11T03:23:43.318Z,0.00
2023-12-11T03:24:43.313Z,0.00
2023-12-11T03:25:43.277Z,0.00
2023-12-11T03:26:43.270Z,0.00
2023-12-11T03:27:43.312Z,0.00
2023-12-11T03:28:43.250Z,0.00
2023-12-11T03:29:43.243Z,0.00
2023-12-11T03:30:43.271Z,0.00
2023-12-11T03:31:43.221Z,0.00
2023-12-11T03:32:43.212Z,0.00
2023-12-11T03:33:43.268Z,0.00
2023-12-11T03:34:43.230Z,0.00
2023-12-11T03:35:43.179Z,0.00
2023-12-11T03:36:43.182Z,0.00
2023-12-11T03:37:43.152Z,0.00
2023-12-11T03:38:43.143Z,0.00
2023-12-11T03:39:43.663Z,0.00
2023-12-11T03:40:43.152Z,0.00
2023-12-11T03:41:43.112Z,0.00
2023-12-11T03:42:44.909Z,0.00
2023-12-11T03:43:43.095Z,0.00
2023-12-11T03:44:43.105Z,0.00
2023-12-11T03:45:43.116Z,0.00
2023-12-11T03:46:43.073Z,0.00
2023-12-11T03:47:43.049Z,0.00
2023-12-11T03:48:43.161Z,0.00
2023-12-11T03:49:43.133Z,0.00
2023-12-11T03:50:43.071Z,0.00
2023-12-11T03:51:43.042Z,0.00
2023-12-11T03:52:43.010Z,0.00
2023-12-11T03:53:42.983Z,0.00
2023-12-11T03:54:43.008Z,0.00
2023-12-11T03:55:42.967Z,0.00
2023-12-11T03:56:43.434Z,0.00
2023-12-11T03:57:42.969Z,0.00
2023-12-11T03:58:42.944Z,0.00
2023-12-11T03:59:42.932Z,0.00
2023-12-11T04:00:43.017Z,0.00
2023-12-11T04:01:43.035Z,0.00
2023-12-11T04:02:42.944Z,0.00
2023-12-11T04:03:43.013Z,0.00
2023-12-11T04:04:42.945Z,0.00
2023-12-11T04:05:42.902Z,0.00
2023-12-11T04:06:42.901Z,0.00
2023-12-11T04:07:42.859Z,0.00
2023-12-11T04:08:42.839Z,0.00
2023-12-11T04:09:42.833Z,0.00
2023-12-11T04:10:42.820Z,0.00
2023-12-11T04:11:43.426Z,0.00
2023-12-11T04:12:42.842Z,0.00
2023-12-11T04:13:42.782Z,0.00
2023-12-11T04:14:42.795Z,0.00
2023-12-11T04:15:42.778Z,0.00
2023-12-11T04:16:42.805Z,0.00
2023-12-11T04:17:42.789Z,0.00
2023-12-11T04:18:42.848Z,0.00
2023-12-11T04:19:42.836Z,0.00
2023-12-11T04:20:42.722Z,0.00
2023-12-11T04:21:42.800Z,0.00
2023-12-11T04:22:42.716Z,0.00
2023-12-11T04:23:42.687Z,0.00
2023-12-11T04:24:42.716Z,0.00
2023-12-11T04:25:42.667Z,0.00
2023-12-11T04:26:42.660Z,0.00
2023-12-11T04:27:42.686Z,0.00
2023-12-11T04:28:42.639Z,0.00
2023-12-11T04:29:42.624Z,0.00
2023-12-11T04:30:42.672Z,0.00
2023-12-11T04:31:42.601Z,0.00
2023-12-11T04:32:42.685Z,0.00
2023-12-11T04:33:42.776Z,0.00
2023-12-11T04:34:42.655Z,0.00
2023-12-11T04:35:42.564Z,0.00
2023-12-11T04:36:42.638Z,0.00
2023-12-11T04:37:42.573Z,0.00
2023-12-11T04:38:42.551Z,0.00
2023-12-11T04:39:42.518Z,0.00
2023-12-11T04:40:42.515Z,0.00
2023-12-11T04:41:42.501Z,0.00
2023-12-11T04:42:42.503Z,0.00
2023-12-11T04:43:42.508Z,0.00
2023-12-11T04:44:42.469Z,0.00
2023-12-11T04:45:42.471Z,0.00
2023-12-11T04:46:42.454Z,0.00
2023-12-11T04:47:42.470Z,0.00
2023-12-11T04:48:42.494Z,0.00
2023-12-11T04:49:42.561Z,0.00
2023-12-11T04:50:42.424Z,0.00
2023-12-11T04:51:42.424Z,0.00
2023-12-11T04:52:42.407Z,0.00
2023-12-11T04:53:42.375Z,0.00
2023-12-11T04:54:42.456Z,0.00
2023-12-11T04:55:42.482Z,0.00
2023-12-11T04:56:42.348Z,0.00
2023-12-11T04:57:42.345Z,0.00
2023-12-11T04:58:42.320Z,0.00
2023-12-11T04:59:44.285Z,0.00
2023-12-11T05:00:42.421Z,0.00
2023-12-11T05:01:42.368Z,0.00
2023-12-11T05:02:42.346Z,0.00
2023-12-11T05:03:42.275Z,0.00
2023-12-11T05:04:42.376Z,0.00
2023-12-11T05:05:42.274Z,0.00
2023-12-11T05:06:42.293Z,0.00
2023-12-11T05:07:42.224Z,0.00
2023-12-11T05:08:42.322Z,0.00
2023-12-11T05:09:42.274Z,0.00
2023-12-11T05:10:42.265Z,0.00
2023-12-11T05:11:42.339Z,0.00
2023-12-11T05:12:42.285Z,0.00
2023-12-11T05:13:42.217Z,0.00
2023-12-11T05:14:42.162Z,0.00
2023-12-11T05:15:42.258Z,0.00
2023-12-11T05:16:42.273Z,0.00
2023-12-11T05:17:42.304Z,0.00
2023-12-11T05:18:42.304Z,0.00
2023-12-11T05:19:42.227Z,0.00
2023-12-11T05:20:42.121Z,0.00
2023-12-11T05:21:42.118Z,0.00
2023-12-11T05:22:42.104Z,0.00
2023-12-11T05:23:42.086Z,0.00
2023-12-11T05:24:42.091Z,0.00
2023-12-11T05:25:42.060Z,0.00
2023-12-11T05:26:42.055Z,0.00
2023-12-11T05:27:42.119Z,0.00
2023-12-11T05:28:42.017Z,0.00
2023-12-11T05:29:41.999Z,0.00
2023-12-11T05:30:42.050Z,0.00
2023-12-11T05:31:41.979Z,0.00
2023-12-11T05:32:42.038Z,0.00
2023-12-11T05:33:42.075Z,0.00
2023-12-11T05:34:42.032Z,0.00
2023-12-11T05:35:41.965Z,0.00
2023-12-11T05:36:42.002Z,0.00
2023-12-11T05:37:41.926Z,0.00
2023-12-11T05:38:41.927Z,0.00
2023-12-11T05:39:47.342Z,0.00
2023-12-11T05:40:41.955Z,0.00
2023-12-11T05:41:41.888Z,0.00
2023-12-11T05:42:41.912Z,0.00
2023-12-11T05:43:41.902Z,0.00
2023-12-11T05:44:41.848Z,0.00
2023-12-11T05:45:41.874Z,0.00
2023-12-11T05:46:41.851Z,0.00
2023-12-11T05:47:41.837Z,0.00
2023-12-11T05:48:42.042Z,0.00
2023-12-11T05:49:41.915Z,0.00
2023-12-11T05:50:41.856Z,0.00
2023-12-11T05:51:41.802Z,0.00
2023-12-11T05:52:41.798Z,0.00
2023-12-11T05:53:41.797Z,0.00
2023-12-11T05:54:41.813Z,0.00
2023-12-11T05:55:41.757Z,0.00
2023-12-11T05:56:41.767Z,0.00
2023-12-11T05:57:41.768Z,0.00
2023-12-11T05:58:41.701Z,0.00
2023-12-11T05:59:41.707Z,0.00
2023-12-11T06:00:43.269Z,0.00
2023-12-11T06:01:41.773Z,0.00
2023-12-11T06:02:41.743Z,0.00
2023-12-11T06:03:41.684Z,0.00
2023-12-11T06:04:41.647Z,0.00
2023-12-11T06:05:41.798Z,0.00
2023-12-11T06:06:41.673Z,0.00
2023-12-11T06:07:41.655Z,0.00
2023-12-11T06:08:41.627Z,0.00
2023-12-11T06:09:41.707Z,0.00
2023-12-11T06:10:41.595Z,0.00
2023-12-11T06:11:41.654Z,0.00
2023-12-11T06:12:41.594Z,0.00
2023-12-11T06:13:41.579Z,0.00
2023-12-11T06:14:43.881Z,0.00
2023-12-11T06:15:41.619Z,0.00
2023-12-11T06:16:41.536Z,0.00
2023-12-11T06:17:41.656Z,0.00
2023-12-11T06:18:41.585Z,0.00
2023-12-11T06:19:41.540Z,0.00
2023-12-11T06:20:41.515Z,0.00
2023-12-11T06:21:41.510Z,0.00
2023-12-11T06:22:41.468Z,0.00
2023-12-11T06:23:41.462Z,0.00
2023-12-11T06:24:42.112Z,0.00
2023-12-11T06:25:41.476Z,0.00
2023-12-11T06:26:41.433Z,0.00
2023-12-11T06:27:41.434Z,0.00
2023-12-11T06:28:41.423Z,0.00
2023-12-11T06:29:41.434Z,0.00
2023-12-11T06:30:41.460Z,0.00
2023-12-11T06:31:41.387Z,0.00
2023-12-11T06:32:41.394Z,0.00
2023-12-11T06:33:41.426Z,0.00
2023-12-11T06:34:41.434Z,0.00
2023-12-11T06:35:41.402Z,0.00
2023-12-11T06:36:41.355Z,0.00
2023-12-11T06:37:41.326Z,0.00
2023-12-11T06:38:41.304Z,0.00
2023-12-11T06:39:41.307Z,0.00
2023-12-11T06:40:41.288Z,0.00
2023-12-11T06:41:41.296Z,0.00
2023-12-11T06:42:41.334Z,0.00
2023-12-11T06:43:41.213Z,1.00
2023-12-11T06:44:41.203Z,1.00
2023-12-11T06:45:41.236Z,1.00
2023-12-11T06:46:41.212Z,1.00
2023-12-11T06:47:41.168Z,1.00
2023-12-11T06:48:41.297Z,0.00
2023-12-11T06:49:41.272Z,0.00
2023-12-11T06:50:41.184Z,0.00
2023-12-11T06:51:41.242Z,0.00
2023-12-11T06:52:41.164Z,0.00
2023-12-11T06:53:41.117Z,7.00
2023-12-11T06:54:41.138Z,5.00
2023-12-11T06:55:41.111Z,1.00
2023-12-11T06:56:41.109Z,1.00
2023-12-11T06:57:41.175Z,2.00
2023-12-11T06:58:41.071Z,4.00
2023-12-11T06:59:41.058Z,7.00
2023-12-11T07:00:41.274Z,4.00
2023-12-11T07:01:41.472Z,9.00
2023-12-11T07:02:41.117Z,7.00
2023-12-11T07:03:41.190Z,13.00
2023-12-11T07:04:41.082Z,7.00
2023-12-11T07:05:41.126Z,6.00
2023-12-11T07:06:41.111Z,16.00
2023-12-11T07:07:41.013Z,14.00
2023-12-11T07:08:40.944Z,22.00
2023-12-11T07:09:41.018Z,28.00
2023-12-11T07:10:40.934Z,34.00
2023-12-11T07:11:40.947Z,39.00
2023-12-11T07:12:41.003Z,45.00
2023-12-11T07:13:41.184Z,41.00
2023-12-11T07:14:40.893Z,38.00
2023-12-11T07:15:41.049Z,34.00
2023-12-11T07:16:41.062Z,51.00
2023-12-11T07:17:41.186Z,48.00
2023-12-11T07:18:41.215Z,74.00
2023-12-11T07:19:41.014Z,88.00
2023-12-11T07:20:40.864Z,95.00
2023-12-11T07:21:40.848Z,125.00
2023-12-11T07:22:40.806Z,116.00
2023-12-11T07:23:41.118Z,85.00
2023-12-11T07:24:40.829Z,94.00
2023-12-11T07:25:40.858Z,109.00
2023-12-11T07:26:40.779Z,123.00
2023-12-11T07:27:40.788Z,128.00
2023-12-11T07:28:40.756Z,165.00
2023-12-11T07:29:40.740Z,178.00
2023-12-11T07:30:40.782Z,169.00
2023-12-11T07:31:40.717Z,147.00
2023-12-11T07:32:40.715Z,157.00
2023-12-11T07:33:40.825Z,193.00
2023-12-11T07:34:40.798Z,211.00
2023-12-11T07:35:40.678Z,205.00
2023-12-11T07:36:40.714Z,208.00
2023-12-11T07:37:40.666Z,184.00
2023-12-11T07:38:40.691Z,218.00
2023-12-11T07:39:40.652Z,223.00
2023-12-11T07:40:40.624Z,217.00
2023-12-11T07:41:40.615Z,361.00
2023-12-11T07:42:40.632Z,351.00
2023-12-11T07:43:40.621Z,274.00
2023-12-11T07:44:40.597Z,218.00
2023-12-11T07:45:40.624Z,190.00
2023-12-11T07:46:42.774Z,190.00
2023-12-11T07:47:40.655Z,165.00
2023-12-11T07:48:40.695Z,145.00
2023-12-11T07:49:40.622Z,157.00
2023-12-11T07:50:40.517Z,171.00
2023-12-11T07:51:40.552Z,147.00
2023-12-11T07:52:40.501Z,112.00
2023-12-11T07:53:40.494Z,160.00
2023-12-11T07:54:40.541Z,156.00
2023-12-11T07:55:40.527Z,92.00
2023-12-11T07:56:40.461Z,200.00
2023-12-11T07:57:40.488Z,210.00
2023-12-11T07:58:40.441Z,209.00
2023-12-11T07:59:40.430Z,237.00
2023-12-11T08:00:40.437Z,263.00
2023-12-11T08:01:40.596Z,234.00
2023-12-11T08:02:40.401Z,239.00
2023-12-11T08:03:40.462Z,358.00
2023-12-11T08:04:40.552Z,325.00
2023-12-11T08:05:40.394Z,313.00
2023-12-11T08:06:40.371Z,377.00
2023-12-11T08:07:40.371Z,372.00
2023-12-11T08:08:40.334Z,337.00
2023-12-11T08:09:40.374Z,411.00
2023-12-11T08:10:40.369Z,430.00
2023-12-11T08:11:40.343Z,375.00
2023-12-11T08:12:40.353Z,455.00
2023-12-11T08:13:40.296Z,574.00
2023-12-11T08:14:40.279Z,531.00
2023-12-11T08:15:40.297Z,709.00
2023-12-11T08:16:40.259Z,561.00
2023-12-11T08:17:40.280Z,597.00
2023-12-11T08:18:40.297Z,684.00
2023-12-11T08:19:40.333Z,610.00
2023-12-11T08:20:40.220Z,718.00
2023-12-11T08:21:40.222Z,761.00
2023-12-11T08:22:40.192Z,698.00
2023-12-11T08:23:40.546Z,957.00
2023-12-11T08:24:40.186Z,887.00
2023-12-11T08:25:40.173Z,845.00
2023-12-11T08:26:40.193Z,686.00
2023-12-11T08:27:40.184Z,578.00
2023-12-11T08:28:40.134Z,692.00
2023-12-11T08:29:40.145Z,603.00
2023-12-11T08:30:40.165Z,507.00
2023-12-11T08:31:40.116Z,306.00
2023-12-11T08:32:40.295Z,994.00
2023-12-11T08:33:40.166Z,399.00
2023-12-11T08:34:40.206Z,609.00
2023-12-11T08:35:40.070Z,1037.00
2023-12-11T08:36:40.069Z,1114.00
2023-12-11T08:37:40.064Z,1375.00
2023-12-11T08:38:40.036Z,1251.00
2023-12-11T08:39:40.081Z,1025.00
2023-12-11T08:40:40.024Z,957.00
2023-12-11T08:41:40.009Z,1033.00
2023-12-11T08:42:41.549Z,1017.00
2023-12-11T08:43:39.986Z,986.00
2023-12-11T08:44:39.977Z,768.00
2023-12-11T08:45:40.024Z,860.00
2023-12-11T08:46:39.948Z,873.00
2023-12-11T08:47:40.537Z,735.00
2023-12-11T08:48:40.024Z,605.00
2023-12-11T08:49:40.047Z,590.00
2023-12-11T08:50:39.924Z,438.00
2023-12-11T08:51:39.941Z,522.00
2023-12-11T08:52:39.891Z,733.00
2023-12-11T08:53:39.888Z,726.00
2023-12-11T08:54:39.894Z,674.00
2023-12-11T08:55:39.887Z,614.00
2023-12-11T08:56:39.845Z,592.00
2023-12-11T08:57:39.866Z,613.00
2023-12-11T08:58:39.849Z,477.00
2023-12-11T08:59:39.830Z,401.00
2023-12-11T09:00:39.912Z,452.00
2023-12-11T09:01:39.908Z,797.00
2023-12-11T09:02:39.814Z,1048.00
2023-12-11T09:03:39.841Z,791.00
2023-12-11T09:04:39.829Z,632.00
2023-12-11T09:05:39.816Z,748.00
2023-12-11T09:06:39.764Z,857.00
2023-12-11T09:07:39.757Z,567.00
2023-12-11T09:08:39.742Z,454.00
2023-12-11T09:09:39.782Z,341.00
2023-12-11T09:10:39.713Z,630.00
2023-12-11T09:11:39.789Z,690.00
2023-12-11T09:12:39.761Z,407.00
2023-12-11T09:13:39.679Z,626.00
2023-12-11T09:14:39.674Z,681.00
2023-12-11T09:15:39.777Z,704.00
2023-12-11T09:16:39.656Z,1094.00
2023-12-11T09:17:39.655Z,1694.00
2023-12-11T09:18:39.808Z,1235.00
2023-12-11T09:19:44.798Z,836.00
2023-12-11T09:20:39.708Z,682.00
2023-12-11T09:21:39.646Z,650.00
2023-12-11T09:22:39.580Z,788.00
2023-12-11T09:23:39.587Z,851.00
2023-12-11T09:24:39.599Z,807.00
2023-12-11T09:25:39.571Z,971.00
2023-12-11T09:26:39.547Z,1251.00
2023-12-11T09:27:39.574Z,921.00
2023-12-11T09:28:48.260Z,1137.00
2023-12-11T09:29:39.524Z,1219.00
2023-12-11T09:30:39.580Z,897.00
2023-12-11T09:31:39.502Z,1010.00
2023-12-11T09:32:39.598Z,1102.00
2023-12-11T09:33:39.606Z,754.00
2023-12-11T09:34:39.618Z,594.00
2023-12-11T09:35:39.498Z,500.00
2023-12-11T09:36:39.474Z,731.00
2023-12-11T09:37:39.453Z,943.00
2023-12-11T09:38:39.420Z,1194.00
2023-12-11T09:39:39.459Z,1045.00
2023-12-11T09:40:39.392Z,972.00
2023-12-11T09:41:39.391Z,1057.00
2023-12-11T09:42:39.469Z,1006.00
2023-12-11T09:43:39.405Z,1148.00
2023-12-11T09:44:39.428Z,1276.00
2023-12-11T09:45:39.395Z,1187.00
2023-12-11T09:46:39.329Z,1230.00
2023-12-11T09:47:39.372Z,1240.00
2023-12-11T09:48:39.537Z,1251.00
2023-12-11T09:49:39.521Z,1173.00
2023-12-11T09:50:39.477Z,1348.00
2023-12-11T09:51:39.353Z,1227.00
2023-12-11T09:52:39.275Z,1052.00
2023-12-11T09:53:39.274Z,902.00
2023-12-11T09:54:39.284Z,734.00
2023-12-11T09:55:39.245Z,688.00
2023-12-11T09:56:39.241Z,829.00
2023-12-11T09:57:39.261Z,897.00
2023-12-11T09:58:39.229Z,919.00
2023-12-11T09:59:39.196Z,867.00
2023-12-11T10:00:39.237Z,637.00
2023-12-11T10:01:39.233Z,507.00
2023-12-11T10:02:39.240Z,513.00
2023-12-11T10:03:39.314Z,704.00
2023-12-11T10:04:39.146Z,845.00
2023-12-11T10:05:39.206Z,723.00
2023-12-11T10:06:39.143Z,512.00
2023-12-11T10:07:39.122Z,537.00
2023-12-11T10:08:39.145Z,835.00
2023-12-11T10:09:39.133Z,1056.00
2023-12-11T10:10:39.103Z,1126.00
2023-12-11T10:11:39.067Z,1207.00
2023-12-11T10:12:39.104Z,988.00
2023-12-11T10:13:39.117Z,839.00
2023-12-11T10:14:39.060Z,961.00
2023-12-11T10:15:39.071Z,718.00
2023-12-11T10:16:39.018Z,706.00
2023-12-11T10:17:39.076Z,742.00
2023-12-11T10:18:39.169Z,833.00
2023-12-11T10:19:39.134Z,893.00
2023-12-11T10:20:39.315Z,632.00
2023-12-11T10:21:39.073Z,730.00
2023-12-11T10:22:38.967Z,879.00
2023-12-11T10:23:38.966Z,1083.00
2023-12-11T10:24:38.985Z,1101.00
2023-12-11T10:25:38.974Z,937.00
2023-12-11T10:26:38.948Z,835.00
2023-12-11T10:27:38.970Z,622.00
2023-12-11T10:28:38.901Z,844.00
2023-12-11T10:29:38.911Z,1132.00
2023-12-11T10:30:38.931Z,1020.00
2023-12-11T10:31:38.868Z,1211.00
2023-12-11T10:32:38.913Z,978.00
2023-12-11T10:33:38.999Z,806.00
2023-12-11T10:34:38.936Z,823.00
2023-12-11T10:35:38.881Z,958.00
2023-12-11T10:36:38.871Z,890.00
2023-12-11T10:37:38.794Z,709.00
2023-12-11T10:38:38.801Z,678.00
2023-12-11T10:39:38.828Z,915.00
2023-12-11T10:40:38.814Z,822.00
2023-12-11T10:41:38.767Z,769.00
2023-12-11T10:42:38.779Z,768.00
2023-12-11T10:43:50.744Z,963.00
2023-12-11T10:44:46.873Z,1115.00
2023-12-11T10:45:38.774Z,1168.00
2023-12-11T10:46:38.767Z,787.00
2023-12-11T10:47:38.711Z,549.00
2023-12-11T10:48:38.878Z,890.00
2023-12-11T10:49:38.714Z,952.00
2023-12-11T10:50:38.707Z,901.00
2023-12-11T10:51:38.681Z,967.00
2023-12-11T10:52:38.710Z,1176.00
2023-12-11T10:53:38.642Z,1107.00
2023-12-11T10:54:38.709Z,837.00
2023-12-11T10:55:38.804Z,721.00
2023-12-11T10:56:38.733Z,664.00
2023-12-11T10:57:38.840Z,431.00
2023-12-11T10:58:38.594Z,386.00
2023-12-11T10:59:38.570Z,553.00
2023-12-11T11:00:38.598Z,1361.00
2023-12-11T11:01:38.725Z,1138.00
2023-12-11T11:02:38.586Z,1080.00
2023-12-11T11:03:38.582Z,852.00
2023-12-11T11:04:38.528Z,1394.00
2023-12-11T11:05:38.593Z,941.00
2023-12-11T11:06:38.570Z,1037.00
2023-12-11T11:07:38.487Z,1603.00
2023-12-11T11:08:38.502Z,1375.00
2023-12-11T11:09:38.500Z,1279.00
2023-12-11T11:10:38.458Z,1481.00
2023-12-11T11:11:38.454Z,1774.00
2023-12-11T11:12:38.484Z,1737.00
2023-12-11T11:13:38.424Z,1580.00
2023-12-11T11:14:38.417Z,1247.00
2023-12-11T11:15:38.411Z,1805.00
2023-12-11T11:16:38.394Z,1739.00
2023-12-11T11:17:38.419Z,1640.00
2023-12-11T11:18:38.457Z,1723.00
2023-12-11T11:19:38.464Z,1818.00
2023-12-11T11:20:38.374Z,1921.00
2023-12-11T11:21:38.526Z,1913.00
2023-12-11T11:22:41.122Z,1828.00
2023-12-11T11:23:38.354Z,2062.00
2023-12-11T11:24:38.449Z,2119.00
2023-12-11T11:25:38.660Z,1926.00
2023-12-11T11:26:38.291Z,1891.00
2023-12-11T11:27:38.313Z,1919.00
2023-12-11T11:28:38.395Z,2234.00
2023-12-11T11:29:38.256Z,2170.00
2023-12-11T11:30:38.418Z,1558.00
2023-12-11T11:31:38.257Z,1082.00
2023-12-11T11:32:38.258Z,759.00
2023-12-11T11:33:38.301Z,1071.00
2023-12-11T11:34:38.824Z,1290.00
2023-12-11T11:35:38.188Z,897.00
2023-12-11T11:36:38.234Z,1297.00
2023-12-11T11:37:38.243Z,2119.00
2023-12-11T11:38:38.163Z,1454.00
2023-12-11T11:39:41.089Z,857.00
2023-12-11T11:40:38.317Z,750.00
2023-12-11T11:41:38.218Z,1026.00
2023-12-11T11:42:38.280Z,730.00
2023-12-11T11:43:38.114Z,616.00
2023-12-11T11:44:38.140Z,797.00
2023-12-11T11:45:38.225Z,699.00
2023-12-11T11:46:38.088Z,666.00
2023-12-11T11:47:38.650Z,770.00
2023-12-11T11:48:38.125Z,752.00
2023-12-11T11:49:38.111Z,974.00
2023-12-11T11:50:38.065Z,662.00
2023-12-11T11:51:38.023Z,1202.00
2023-12-11T11:52:38.022Z,1838.00
2023-12-11T11:53:38.001Z,2031.00
2023-12-11T11:54:38.021Z,1681.00
2023-12-11T11:55:38.055Z,1403.00
2023-12-11T11:56:37.982Z,1192.00
2023-12-11T11:57:38.038Z,1322.00
2023-12-11T11:58:37.958Z,1653.00
2023-12-11T11:59:37.937Z,1674.00
2023-12-11T12:00:37.983Z,1311.00
2023-12-11T12:01:38.034Z,1228.00
2023-12-11T12:02:37.931Z,1482.00
2023-12-11T12:03:37.936Z,1540.00
2023-12-11T12:04:37.933Z,1501.00
2023-12-11T12:05:38.097Z,1511.00
2023-12-11T12:06:37.875Z,1553.00
2023-12-11T12:07:37.855Z,1648.00
2023-12-11T12:08:37.859Z,1688.00
2023-12-11T12:09:37.838Z,1583.00
2023-12-11T12:10:37.855Z,1696.00
2023-12-11T12:11:37.818Z,1646.00
2023-12-11T12:12:37.812Z,1526.00
2023-12-11T12:13:37.988Z,1549.00
2023-12-11T12:14:37.829Z,1577.00
2023-12-11T12:15:37.777Z,1556.00
2023-12-11T12:16:37.797Z,1537.00
2023-12-11T12:17:38.150Z,1229.00
2023-12-11T12:18:37.867Z,1151.00
2023-12-11T12:19:37.743Z,810.00
2023-12-11T12:20:37.792Z,1205.00
2023-12-11T12:21:37.709Z,1507.00
2023-12-11T12:22:37.781Z,973.00
2023-12-11T12:23:37.690Z,1272.00
2023-12-11T12:24:37.693Z,841.00
2023-12-11T12:25:37.683Z,735.00
2023-12-11T12:26:37.666Z,2377.00
2023-12-11T12:27:37.681Z,1158.00
2023-12-11T12:28:37.660Z,1579.00
2023-12-11T12:29:37.633Z,876.00
2023-12-11T12:30:37.632Z,2616.00
2023-12-11T12:31:37.608Z,1383.00
2023-12-11T12:32:37.728Z,2012.00
2023-12-11T12:33:37.659Z,1761.00
2023-12-11T12:34:37.664Z,1230.00
2023-12-11T12:35:37.615Z,762.00
2023-12-11T12:36:37.584Z,1055.00
2023-12-11T12:37:37.579Z,1267.00
2023-12-11T12:38:37.578Z,607.00
2023-12-11T12:39:37.531Z,1486.00
2023-12-11T12:40:37.569Z,1304.00
2023-12-11T12:41:37.508Z,2383.00
2023-12-11T12:42:37.518Z,1841.00
2023-12-11T12:43:37.482Z,1852.00
2023-12-11T12:44:37.632Z,1210.00
2023-12-11T12:45:37.518Z,1381.00
2023-12-11T12:46:37.486Z,727.00
2023-12-11T12:47:37.656Z,1099.00
2023-12-11T12:48:37.479Z,946.00
2023-12-11T12:49:38.005Z,458.00
2023-12-11T12:50:37.436Z,524.00
2023-12-11T12:51:37.403Z,702.00